sensor_id;sensor_type;location;lat;lon;timestamp;P1;durP1;ratioP1;P2;durP2;ratioP2
43801;SDS011;29429;51.074;13.764;2024-01-15T00:01:00;13.00;;;6.20;;
43801;SDS011;29429;51.074;13.764;2024-01-15T00:03:27;12.50;;;6.78;;
43801;SDS011;29429;51.074;13.764;2024-01-15T00:05:54;11.98;;;6.53;;
43801;SDS011;29429;51.074;13.764;2024-01-15T00:08:21;15.57;;;7.07;;
43801;SDS011;29429;51.074;13.764;2024-01-15T00:10:48;12.52;;;6.43;;
43801;SDS011;29429;51.074;13.764;2024-01-15T00:13:15;12.70;;;7.13;;
43801;SDS011;29429;51.074;13.764;2024-01-15T00:15:42;11.45;;;6.57;;
43801;SDS011;29429;51.074;13.764;2024-01-15T00:18:10;13.95;;;7.20;;
43801;SDS011;29429;51.074;13.764;2024-01-15T00:20:37;11.70;;;6.97;;
43801;SDS011;29429;51.074;13.764;2024-01-15T00:23:04;14.60;;;6.90;;
43801;SDS011;29429;51.074;13.764;2024-01-15T00:25:31;13.32;;;7.05;;
43801;SDS011;29429;51.074;13.764;2024-01-15T00:27:58;14.60;;;7.35;;
43801;SDS011;29429;51.074;13.764;2024-01-15T00:30:25;12.48;;;6.60;;
43801;SDS011;29429;51.074;13.764;2024-01-15T00:32:53;14.88;;;7.20;;
43801;SDS011;29429;51.074;13.764;2024-01-15T00:35:20;12.80;;;6.65;;
43801;SDS011;29429;51.074;13.764;2024-01-15T00:37:47;13.38;;;7.15;;
43801;SDS011;29429;51.074;13.764;2024-01-15T00:40:14;13.40;;;7.05;;
43801;SDS011;29429;51.074;13.764;2024-01-15T00:42:41;12.60;;;7.28;;
43801;SDS011;29429;51.074;13.764;2024-01-15T00:45:08;12.68;;;6.65;;
43801;SDS011;29429;51.074;13.764;2024-01-15T00:47:35;15.15;;;7.32;;
43801;SDS011;29429;51.074;13.764;2024-01-15T00:50:03;16.13;;;8.48;;
43801;SDS011;29429;51.074;13.764;2024-01-15T00:52:30;13.98;;;8.52;;
43801;SDS011;29429;51.074;13.764;2024-01-15T00:54:57;14.13;;;7.82;;
43801;SDS011;29429;51.074;13.764;2024-01-15T00:57:24;13.68;;;7.53;;
43801;SDS011;29429;51.074;13.764;2024-01-15T00:59:51;14.57;;;7.03;;
43801;SDS011;29429;51.074;13.764;2024-01-15T01:02:18;16.33;;;7.68;;
43801;SDS011;29429;51.074;13.764;2024-01-15T01:04:45;12.30;;;7.03;;
43801;SDS011;29429;51.074;13.764;2024-01-15T01:07:12;13.13;;;7.03;;
43801;SDS011;29429;51.074;13.764;2024-01-15T01:09:39;14.45;;;7.15;;
43801;SDS011;29429;51.074;13.764;2024-01-15T01:12:06;15.23;;;7.18;;
43801;SDS011;29429;51.074;13.764;2024-01-15T01:14:33;16.13;;;7.75;;
43801;SDS011;29429;51.074;13.764;2024-01-15T01:17:00;15.52;;;6.47;;
43801;SDS011;29429;51.074;13.764;2024-01-15T01:19:26;13.38;;;6.70;;
43801;SDS011;29429;51.074;13.764;2024-01-15T01:21:54;13.77;;;7.15;;
43801;SDS011;29429;51.074;13.764;2024-01-15T01:24:21;15.98;;;8.10;;
43801;SDS011;29429;51.074;13.764;2024-01-15T01:26:48;13.00;;;7.22;;
43801;SDS011;29429;51.074;13.764;2024-01-15T01:29:15;14.68;;;7.47;;
43801;SDS011;29429;51.074;13.764;2024-01-15T01:31:45;16.65;;;8.23;;
43801;SDS011;29429;51.074;13.764;2024-01-15T01:34:15;15.30;;;7.20;;
43801;SDS011;29429;51.074;13.764;2024-01-15T01:36:43;15.38;;;7.47;;
43801;SDS011;29429;51.074;13.764;2024-01-15T01:39:10;14.95;;;7.97;;
43801;SDS011;29429;51.074;13.764;2024-01-15T01:41:38;14.25;;;7.85;;
43801;SDS011;29429;51.074;13.764;2024-01-15T01:44:06;16.42;;;8.52;;
43801;SDS011;29429;51.074;13.764;2024-01-15T01:46:33;17.25;;;8.32;;
43801;SDS011;29429;51.074;13.764;2024-01-15T01:49:06;14.27;;;7.68;;
43801;SDS011;29429;51.074;13.764;2024-01-15T01:51:35;14.90;;;7.38;;
43801;SDS011;29429;51.074;13.764;2024-01-15T01:54:05;16.35;;;7.72;;
43801;SDS011;29429;51.074;13.764;2024-01-15T01:56:34;19.70;;;8.77;;
43801;SDS011;29429;51.074;13.764;2024-01-15T01:59:01;17.13;;;7.68;;
43801;SDS011;29429;51.074;13.764;2024-01-15T02:01:31;17.05;;;7.60;;
43801;SDS011;29429;51.074;13.764;2024-01-15T02:03:58;13.80;;;7.57;;
43801;SDS011;29429;51.074;13.764;2024-01-15T02:06:26;12.48;;;6.65;;
43801;SDS011;29429;51.074;13.764;2024-01-15T02:08:54;15.80;;;7.97;;
43801;SDS011;29429;51.074;13.764;2024-01-15T02:11:21;15.00;;;7.43;;
43801;SDS011;29429;51.074;13.764;2024-01-15T02:13:49;17.33;;;7.43;;
43801;SDS011;29429;51.074;13.764;2024-01-15T02:16:16;18.52;;;8.23;;
43801;SDS011;29429;51.074;13.764;2024-01-15T02:18:45;13.88;;;7.93;;
43801;SDS011;29429;51.074;13.764;2024-01-15T02:21:13;15.73;;;8.00;;
43801;SDS011;29429;51.074;13.764;2024-01-15T02:23:40;15.93;;;8.05;;
43801;SDS011;29429;51.074;13.764;2024-01-15T02:26:07;15.18;;;7.65;;
43801;SDS011;29429;51.074;13.764;2024-01-15T02:28:35;14.32;;;7.20;;
43801;SDS011;29429;51.074;13.764;2024-01-15T02:31:02;17.88;;;8.35;;
43801;SDS011;29429;51.074;13.764;2024-01-15T02:33:29;14.00;;;7.93;;
43801;SDS011;29429;51.074;13.764;2024-01-15T02:35:56;15.48;;;8.27;;
43801;SDS011;29429;51.074;13.764;2024-01-15T02:38:23;18.90;;;9.48;;
43801;SDS011;29429;51.074;13.764;2024-01-15T02:40:50;15.05;;;7.75;;
43801;SDS011;29429;51.074;13.764;2024-01-15T02:43:17;16.48;;;8.35;;
43801;SDS011;29429;51.074;13.764;2024-01-15T02:45:45;16.10;;;7.32;;
43801;SDS011;29429;51.074;13.764;2024-01-15T02:48:13;14.65;;;7.85;;
43801;SDS011;29429;51.074;13.764;2024-01-15T02:50:40;16.80;;;8.57;;
43801;SDS011;29429;51.074;13.764;2024-01-15T02:53:07;16.63;;;8.00;;
43801;SDS011;29429;51.074;13.764;2024-01-15T02:55:34;18.00;;;9.05;;
43801;SDS011;29429;51.074;13.764;2024-01-15T02:58:01;15.63;;;8.23;;
43801;SDS011;29429;51.074;13.764;2024-01-15T03:00:30;19.48;;;9.30;;
43801;SDS011;29429;51.074;13.764;2024-01-15T03:02:57;17.45;;;9.20;;
43801;SDS011;29429;51.074;13.764;2024-01-15T03:05:24;18.45;;;8.98;;
43801;SDS011;29429;51.074;13.764;2024-01-15T03:07:51;17.80;;;9.20;;
43801;SDS011;29429;51.074;13.764;2024-01-15T03:10:18;16.83;;;8.90;;
43801;SDS011;29429;51.074;13.764;2024-01-15T03:12:45;21.90;;;8.68;;
43801;SDS011;29429;51.074;13.764;2024-01-15T03:15:12;19.02;;;8.80;;
43801;SDS011;29429;51.074;13.764;2024-01-15T03:17:40;18.95;;;9.02;;
43801;SDS011;29429;51.074;13.764;2024-01-15T03:20:09;19.42;;;8.75;;
43801;SDS011;29429;51.074;13.764;2024-01-15T03:22:37;16.77;;;8.63;;
43801;SDS011;29429;51.074;13.764;2024-01-15T03:25:04;19.63;;;8.82;;
43801;SDS011;29429;51.074;13.764;2024-01-15T03:27:32;16.48;;;9.10;;
43801;SDS011;29429;51.074;13.764;2024-01-15T03:30:00;16.88;;;8.75;;
43801;SDS011;29429;51.074;13.764;2024-01-15T03:32:28;18.02;;;8.68;;
43801;SDS011;29429;51.074;13.764;2024-01-15T03:34:55;17.30;;;8.80;;
43801;SDS011;29429;51.074;13.764;2024-01-15T03:37:22;19.75;;;9.40;;
43801;SDS011;29429;51.074;13.764;2024-01-15T03:39:49;19.90;;;9.38;;
43801;SDS011;29429;51.074;13.764;2024-01-15T03:42:16;20.80;;;9.75;;
43801;SDS011;29429;51.074;13.764;2024-01-15T03:44:43;19.33;;;9.32;;
43801;SDS011;29429;51.074;13.764;2024-01-15T03:47:10;19.20;;;8.80;;
43801;SDS011;29429;51.074;13.764;2024-01-15T03:49:37;20.40;;;10.00;;
43801;SDS011;29429;51.074;13.764;2024-01-15T03:52:04;20.13;;;9.15;;
43801;SDS011;29429;51.074;13.764;2024-01-15T03:54:32;20.35;;;9.23;;
43801;SDS011;29429;51.074;13.764;2024-01-15T03:56:59;22.08;;;10.32;;
43801;SDS011;29429;51.074;13.764;2024-01-15T03:59:26;21.58;;;10.77;;
43801;SDS011;29429;51.074;13.764;2024-01-15T04:01:53;20.13;;;10.10;;
43801;SDS011;29429;51.074;13.764;2024-01-15T04:04:20;17.95;;;9.50;;
43801;SDS011;29429;51.074;13.764;2024-01-15T04:06:47;21.33;;;10.05;;
43801;SDS011;29429;51.074;13.764;2024-01-15T04:09:14;19.67;;;10.55;;
43801;SDS011;29429;51.074;13.764;2024-01-15T04:11:41;18.88;;;9.20;;
43801;SDS011;29429;51.074;13.764;2024-01-15T04:14:08;20.90;;;9.50;;
43801;SDS011;29429;51.074;13.764;2024-01-15T04:16:36;21.38;;;10.27;;
43801;SDS011;29429;51.074;13.764;2024-01-15T04:19:04;20.95;;;9.85;;
43801;SDS011;29429;51.074;13.764;2024-01-15T04:21:31;18.38;;;9.05;;
43801;SDS011;29429;51.074;13.764;2024-01-15T04:23:58;19.50;;;9.40;;
43801;SDS011;29429;51.074;13.764;2024-01-15T04:26:25;19.48;;;9.32;;
43801;SDS011;29429;51.074;13.764;2024-01-15T04:28:52;17.40;;;9.38;;
43801;SDS011;29429;51.074;13.764;2024-01-15T04:31:25;20.98;;;9.85;;
43801;SDS011;29429;51.074;13.764;2024-01-15T04:33:55;18.02;;;8.98;;
43801;SDS011;29429;51.074;13.764;2024-01-15T04:36:22;19.83;;;9.93;;
43801;SDS011;29429;51.074;13.764;2024-01-15T04:38:49;20.50;;;9.32;;
43801;SDS011;29429;51.074;13.764;2024-01-15T04:41:16;18.38;;;9.13;;
43801;SDS011;29429;51.074;13.764;2024-01-15T04:43:43;22.42;;;10.65;;
43801;SDS011;29429;51.074;13.764;2024-01-15T04:46:10;17.63;;;9.10;;
43801;SDS011;29429;51.074;13.764;2024-01-15T04:48:37;20.60;;;10.00;;
43801;SDS011;29429;51.074;13.764;2024-01-15T04:51:05;20.92;;;10.05;;
43801;SDS011;29429;51.074;13.764;2024-01-15T04:53:34;22.58;;;10.13;;
43801;SDS011;29429;51.074;13.764;2024-01-15T04:56:02;19.33;;;9.52;;
43801;SDS011;29429;51.074;13.764;2024-01-15T04:58:29;17.10;;;8.82;;
43801;SDS011;29429;51.074;13.764;2024-01-15T05:00:56;19.55;;;9.85;;
43801;SDS011;29429;51.074;13.764;2024-01-15T05:03:23;21.55;;;10.45;;
43801;SDS011;29429;51.074;13.764;2024-01-15T05:05:51;19.52;;;9.18;;
43801;SDS011;29429;51.074;13.764;2024-01-15T05:08:18;20.02;;;9.55;;
43801;SDS011;29429;51.074;13.764;2024-01-15T05:10:45;21.90;;;10.23;;
43801;SDS011;29429;51.074;13.764;2024-01-15T05:13:12;20.52;;;8.93;;
43801;SDS011;29429;51.074;13.764;2024-01-15T05:15:39;19.77;;;9.40;;
43801;SDS011;29429;51.074;13.764;2024-01-15T05:18:06;20.95;;;9.65;;
43801;SDS011;29429;51.074;13.764;2024-01-15T05:20:34;21.00;;;9.05;;
43801;SDS011;29429;51.074;13.764;2024-01-15T05:23:01;19.70;;;9.20;;
43801;SDS011;29429;51.074;13.764;2024-01-15T05:25:28;20.52;;;9.40;;
43801;SDS011;29429;51.074;13.764;2024-01-15T05:27:55;22.63;;;9.75;;
43801;SDS011;29429;51.074;13.764;2024-01-15T05:30:22;19.40;;;8.50;;
43801;SDS011;29429;51.074;13.764;2024-01-15T05:32:49;21.05;;;9.45;;
43801;SDS011;29429;51.074;13.764;2024-01-15T05:35:16;19.52;;;9.25;;
43801;SDS011;29429;51.074;13.764;2024-01-15T05:37:44;22.98;;;9.98;;
43801;SDS011;29429;51.074;13.764;2024-01-15T05:40:12;17.13;;;8.60;;
43801;SDS011;29429;51.074;13.764;2024-01-15T05:42:39;18.45;;;9.05;;
43801;SDS011;29429;51.074;13.764;2024-01-15T05:45:08;19.38;;;8.90;;
43801;SDS011;29429;51.074;13.764;2024-01-15T05:47:35;21.15;;;8.88;;
43801;SDS011;29429;51.074;13.764;2024-01-15T05:50:03;19.65;;;8.10;;
43801;SDS011;29429;51.074;13.764;2024-01-15T05:52:31;22.95;;;9.73;;
43801;SDS011;29429;51.074;13.764;2024-01-15T05:54:58;19.10;;;8.25;;
43801;SDS011;29429;51.074;13.764;2024-01-15T05:57:25;20.02;;;9.35;;
43801;SDS011;29429;51.074;13.764;2024-01-15T05:59:52;25.05;;;10.23;;
43801;SDS011;29429;51.074;13.764;2024-01-15T06:02:20;19.45;;;9.32;;
43801;SDS011;29429;51.074;13.764;2024-01-15T06:04:47;17.77;;;8.75;;
43801;SDS011;29429;51.074;13.764;2024-01-15T06:07:14;20.88;;;8.80;;
43801;SDS011;29429;51.074;13.764;2024-01-15T06:09:41;22.63;;;9.10;;
43801;SDS011;29429;51.074;13.764;2024-01-15T06:12:08;19.90;;;8.98;;
43801;SDS011;29429;51.074;13.764;2024-01-15T06:14:35;17.27;;;8.35;;
43801;SDS011;29429;51.074;13.764;2024-01-15T06:17:02;18.98;;;8.50;;
43801;SDS011;29429;51.074;13.764;2024-01-15T06:19:29;18.65;;;8.10;;
43801;SDS011;29429;51.074;13.764;2024-01-15T06:21:57;16.67;;;7.78;;
43801;SDS011;29429;51.074;13.764;2024-01-15T06:24:24;16.48;;;7.97;;
43801;SDS011;29429;51.074;13.764;2024-01-15T06:26:51;16.55;;;8.30;;
43801;SDS011;29429;51.074;13.764;2024-01-15T06:29:18;17.08;;;7.88;;
43801;SDS011;29429;51.074;13.764;2024-01-15T06:31:45;14.50;;;7.63;;
43801;SDS011;29429;51.074;13.764;2024-01-15T06:34:12;17.35;;;8.25;;
43801;SDS011;29429;51.074;13.764;2024-01-15T06:36:39;15.93;;;8.00;;
43801;SDS011;29429;51.074;13.764;2024-01-15T06:39:06;18.23;;;8.23;;
43801;SDS011;29429;51.074;13.764;2024-01-15T06:41:33;15.13;;;7.65;;
43801;SDS011;29429;51.074;13.764;2024-01-15T06:44:00;18.13;;;7.97;;
43801;SDS011;29429;51.074;13.764;2024-01-15T06:46:27;17.58;;;8.07;;
43801;SDS011;29429;51.074;13.764;2024-01-15T06:48:54;18.33;;;8.02;;
43801;SDS011;29429;51.074;13.764;2024-01-15T06:51:21;14.90;;;7.38;;
43801;SDS011;29429;51.074;13.764;2024-01-15T06:53:48;16.17;;;7.40;;
43801;SDS011;29429;51.074;13.764;2024-01-15T06:56:15;15.10;;;7.90;;
43801;SDS011;29429;51.074;13.764;2024-01-15T06:58:42;12.57;;;6.60;;
43801;SDS011;29429;51.074;13.764;2024-01-15T07:01:09;15.98;;;7.57;;
43801;SDS011;29429;51.074;13.764;2024-01-15T07:03:37;17.10;;;7.32;;
43801;SDS011;29429;51.074;13.764;2024-01-15T07:06:04;15.25;;;7.03;;
43801;SDS011;29429;51.074;13.764;2024-01-15T07:08:31;15.52;;;7.32;;
43801;SDS011;29429;51.074;13.764;2024-01-15T07:10:58;19.05;;;8.13;;
43801;SDS011;29429;51.074;13.764;2024-01-15T07:13:25;13.98;;;6.70;;
43801;SDS011;29429;51.074;13.764;2024-01-15T07:15:52;14.68;;;7.38;;
43801;SDS011;29429;51.074;13.764;2024-01-15T07:18:19;16.90;;;6.72;;
43801;SDS011;29429;51.074;13.764;2024-01-15T07:20:46;14.23;;;6.93;;
43801;SDS011;29429;51.074;13.764;2024-01-15T07:23:13;14.63;;;6.65;;
43801;SDS011;29429;51.074;13.764;2024-01-15T07:25:40;14.93;;;7.07;;
43801;SDS011;29429;51.074;13.764;2024-01-15T07:28:07;15.82;;;6.95;;
43801;SDS011;29429;51.074;13.764;2024-01-15T07:30:34;13.55;;;6.70;;
43801;SDS011;29429;51.074;13.764;2024-01-15T07:33:05;19.45;;;7.88;;
43801;SDS011;29429;51.074;13.764;2024-01-15T07:35:32;15.65;;;7.72;;
43801;SDS011;29429;51.074;13.764;2024-01-15T07:37:59;13.90;;;6.38;;
43801;SDS011;29429;51.074;13.764;2024-01-15T07:40:26;16.33;;;7.80;;
43801;SDS011;29429;51.074;13.764;2024-01-15T07:42:53;16.00;;;6.82;;
43801;SDS011;29429;51.074;13.764;2024-01-15T07:45:20;17.60;;;7.55;;
43801;SDS011;29429;51.074;13.764;2024-01-15T07:47:47;14.55;;;7.63;;
43801;SDS011;29429;51.074;13.764;2024-01-15T07:50:15;15.20;;;7.43;;
43801;SDS011;29429;51.074;13.764;2024-01-15T07:52:42;16.17;;;7.30;;
43801;SDS011;29429;51.074;13.764;2024-01-15T07:55:09;16.70;;;7.80;;
43801;SDS011;29429;51.074;13.764;2024-01-15T07:57:36;16.75;;;7.38;;
43801;SDS011;29429;51.074;13.764;2024-01-15T08:00:04;15.05;;;7.40;;
43801;SDS011;29429;51.074;13.764;2024-01-15T08:02:31;15.50;;;7.63;;
43801;SDS011;29429;51.074;13.764;2024-01-15T08:05:03;15.95;;;8.30;;
43801;SDS011;29429;51.074;13.764;2024-01-15T08:07:30;13.27;;;6.80;;
43801;SDS011;29429;51.074;13.764;2024-01-15T08:09:57;12.32;;;6.50;;
43801;SDS011;29429;51.074;13.764;2024-01-15T08:12:24;16.58;;;7.65;;
43801;SDS011;29429;51.074;13.764;2024-01-15T08:14:51;16.08;;;7.45;;
43801;SDS011;29429;51.074;13.764;2024-01-15T08:17:18;15.63;;;6.82;;
43801;SDS011;29429;51.074;13.764;2024-01-15T08:19:45;14.68;;;7.28;;
43801;SDS011;29429;51.074;13.764;2024-01-15T08:22:12;15.80;;;7.30;;
43801;SDS011;29429;51.074;13.764;2024-01-15T08:24:39;17.98;;;7.85;;
43801;SDS011;29429;51.074;13.764;2024-01-15T08:27:06;12.23;;;5.70;;
43801;SDS011;29429;51.074;13.764;2024-01-15T08:29:34;19.67;;;7.10;;
43801;SDS011;29429;51.074;13.764;2024-01-15T08:32:01;19.00;;;6.90;;
43801;SDS011;29429;51.074;13.764;2024-01-15T08:34:28;15.52;;;7.38;;
43801;SDS011;29429;51.074;13.764;2024-01-15T08:36:57;15.60;;;6.68;;
43801;SDS011;29429;51.074;13.764;2024-01-15T08:39:24;20.00;;;7.25;;
43801;SDS011;29429;51.074;13.764;2024-01-15T08:41:51;15.02;;;7.10;;
43801;SDS011;29429;51.074;13.764;2024-01-15T08:44:18;13.65;;;6.57;;
43801;SDS011;29429;51.074;13.764;2024-01-15T08:46:45;16.23;;;7.10;;
43801;SDS011;29429;51.074;13.764;2024-01-15T08:49:12;11.75;;;5.60;;
43801;SDS011;29429;51.074;13.764;2024-01-15T08:51:39;13.57;;;5.75;;
43801;SDS011;29429;51.074;13.764;2024-01-15T08:54:06;15.23;;;6.40;;
43801;SDS011;29429;51.074;13.764;2024-01-15T08:56:34;16.15;;;7.68;;
43801;SDS011;29429;51.074;13.764;2024-01-15T08:59:01;14.45;;;6.60;;
43801;SDS011;29429;51.074;13.764;2024-01-15T09:01:28;13.45;;;6.63;;
43801;SDS011;29429;51.074;13.764;2024-01-15T09:03:56;12.48;;;6.30;;
43801;SDS011;29429;51.074;13.764;2024-01-15T09:06:23;16.02;;;6.72;;
43801;SDS011;29429;51.074;13.764;2024-01-15T09:08:50;14.30;;;6.22;;
43801;SDS011;29429;51.074;13.764;2024-01-15T09:11:17;18.33;;;5.65;;
43801;SDS011;29429;51.074;13.764;2024-01-15T09:13:43;12.20;;;5.63;;
43801;SDS011;29429;51.074;13.764;2024-01-15T09:16:11;12.20;;;6.47;;
43801;SDS011;29429;51.074;13.764;2024-01-15T09:18:38;11.90;;;6.13;;
43801;SDS011;29429;51.074;13.764;2024-01-15T09:21:05;14.95;;;6.13;;
43801;SDS011;29429;51.074;13.764;2024-01-15T09:23:32;12.07;;;6.15;;
43801;SDS011;29429;51.074;13.764;2024-01-15T09:25:59;11.07;;;5.20;;
43801;SDS011;29429;51.074;13.764;2024-01-15T09:28:26;12.10;;;6.72;;
43801;SDS011;29429;51.074;13.764;2024-01-15T09:30:54;12.90;;;6.35;;
43801;SDS011;29429;51.074;13.764;2024-01-15T09:33:21;13.65;;;5.93;;
43801;SDS011;29429;51.074;13.764;2024-01-15T09:35:48;11.68;;;5.82;;
43801;SDS011;29429;51.074;13.764;2024-01-15T09:38:16;10.27;;;4.82;;
43801;SDS011;29429;51.074;13.764;2024-01-15T09:40:45;11.73;;;5.50;;
43801;SDS011;29429;51.074;13.764;2024-01-15T09:43:13;12.43;;;5.85;;
43801;SDS011;29429;51.074;13.764;2024-01-15T09:45:42;10.98;;;5.10;;
43801;SDS011;29429;51.074;13.764;2024-01-15T09:48:10;15.02;;;5.75;;
43801;SDS011;29429;51.074;13.764;2024-01-15T09:50:39;8.68;;;4.70;;
43801;SDS011;29429;51.074;13.764;2024-01-15T09:53:06;11.60;;;5.03;;
43801;SDS011;29429;51.074;13.764;2024-01-15T09:55:33;10.00;;;4.60;;
43801;SDS011;29429;51.074;13.764;2024-01-15T09:58:00;11.13;;;4.82;;
43801;SDS011;29429;51.074;13.764;2024-01-15T10:00:28;9.90;;;4.63;;
43801;SDS011;29429;51.074;13.764;2024-01-15T10:02:59;13.07;;;4.85;;
43801;SDS011;29429;51.074;13.764;2024-01-15T10:05:26;10.55;;;5.13;;
43801;SDS011;29429;51.074;13.764;2024-01-15T10:07:54;9.65;;;5.28;;
43801;SDS011;29429;51.074;13.764;2024-01-15T10:10:24;13.40;;;5.70;;
43801;SDS011;29429;51.074;13.764;2024-01-15T10:12:51;12.48;;;5.57;;
43801;SDS011;29429;51.074;13.764;2024-01-15T10:15:18;13.32;;;5.32;;
43801;SDS011;29429;51.074;13.764;2024-01-15T10:17:50;11.70;;;4.93;;
43801;SDS011;29429;51.074;13.764;2024-01-15T10:20:17;11.70;;;5.40;;
43801;SDS011;29429;51.074;13.764;2024-01-15T10:22:44;13.27;;;5.53;;
43801;SDS011;29429;51.074;13.764;2024-01-15T10:25:13;14.60;;;5.43;;
43801;SDS011;29429;51.074;13.764;2024-01-15T10:27:41;10.18;;;4.78;;
43801;SDS011;29429;51.074;13.764;2024-01-15T10:30:08;11.27;;;5.30;;
43801;SDS011;29429;51.074;13.764;2024-01-15T10:32:37;11.95;;;5.05;;
43801;SDS011;29429;51.074;13.764;2024-01-15T10:35:04;9.23;;;4.45;;
43801;SDS011;29429;51.074;13.764;2024-01-15T10:37:33;11.43;;;5.07;;
43801;SDS011;29429;51.074;13.764;2024-01-15T10:40:01;11.88;;;5.22;;
43801;SDS011;29429;51.074;13.764;2024-01-15T10:42:32;13.15;;;4.95;;
43801;SDS011;29429;51.074;13.764;2024-01-15T10:44:59;11.90;;;5.40;;
43801;SDS011;29429;51.074;13.764;2024-01-15T10:47:26;10.50;;;4.68;;
43801;SDS011;29429;51.074;13.764;2024-01-15T10:49:53;9.57;;;5.15;;
43801;SDS011;29429;51.074;13.764;2024-01-15T10:52:21;10.55;;;5.50;;
43801;SDS011;29429;51.074;13.764;2024-01-15T10:54:48;11.93;;;5.55;;
43801;SDS011;29429;51.074;13.764;2024-01-15T10:57:16;10.35;;;5.00;;
43801;SDS011;29429;51.074;13.764;2024-01-15T10:59:47;13.63;;;5.05;;
43801;SDS011;29429;51.074;13.764;2024-01-15T11:02:14;11.85;;;4.95;;
43801;SDS011;29429;51.074;13.764;2024-01-15T11:04:42;8.00;;;4.53;;
43801;SDS011;29429;51.074;13.764;2024-01-15T11:07:09;13.50;;;5.40;;
43801;SDS011;29429;51.074;13.764;2024-01-15T11:09:38;14.07;;;5.43;;
43801;SDS011;29429;51.074;13.764;2024-01-15T11:12:10;16.83;;;4.82;;
43801;SDS011;29429;51.074;13.764;2024-01-15T11:14:40;12.43;;;4.78;;
43801;SDS011;29429;51.074;13.764;2024-01-15T11:17:12;8.90;;;4.65;;
43801;SDS011;29429;51.074;13.764;2024-01-15T11:19:44;11.90;;;4.97;;
43801;SDS011;29429;51.074;13.764;2024-01-15T11:25:02;11.20;;;5.07;;
43801;SDS011;29429;51.074;13.764;2024-01-15T11:27:43;13.13;;;5.53;;
43801;SDS011;29429;51.074;13.764;2024-01-15T11:30:19;12.32;;;5.43;;
43801;SDS011;29429;51.074;13.764;2024-01-15T11:32:51;14.65;;;5.25;;
43801;SDS011;29429;51.074;13.764;2024-01-15T11:35:18;10.00;;;5.45;;
43801;SDS011;29429;51.074;13.764;2024-01-15T11:40:22;10.90;;;5.68;;
43801;SDS011;29429;51.074;13.764;2024-01-15T11:42:59;9.30;;;5.05;;
43801;SDS011;29429;51.074;13.764;2024-01-15T11:45:26;10.68;;;4.80;;
43801;SDS011;29429;51.074;13.764;2024-01-15T11:48:13;11.07;;;5.60;;
43801;SDS011;29429;51.074;13.764;2024-01-15T11:50:43;12.25;;;5.53;;
43801;SDS011;29429;51.074;13.764;2024-01-15T11:53:25;9.68;;;4.85;;
43801;SDS011;29429;51.074;13.764;2024-01-15T11:56:14;11.68;;;4.70;;
43801;SDS011;29429;51.074;13.764;2024-01-15T11:58:45;12.95;;;5.10;;
43801;SDS011;29429;51.074;13.764;2024-01-15T12:01:12;10.27;;;4.93;;
43801;SDS011;29429;51.074;13.764;2024-01-15T12:03:40;8.35;;;4.78;;
43801;SDS011;29429;51.074;13.764;2024-01-15T12:06:07;11.35;;;4.95;;
43801;SDS011;29429;51.074;13.764;2024-01-15T12:08:36;11.93;;;5.40;;
43801;SDS011;29429;51.074;13.764;2024-01-15T12:11:06;10.75;;;4.72;;
43801;SDS011;29429;51.074;13.764;2024-01-15T12:13:39;9.80;;;4.60;;
43801;SDS011;29429;51.074;13.764;2024-01-15T12:16:07;11.10;;;5.70;;
43801;SDS011;29429;51.074;13.764;2024-01-15T12:18:34;12.30;;;5.05;;
43801;SDS011;29429;51.074;13.764;2024-01-15T12:21:03;10.07;;;4.85;;
43801;SDS011;29429;51.074;13.764;2024-01-15T12:23:30;8.68;;;4.70;;
43801;SDS011;29429;51.074;13.764;2024-01-15T12:25:57;8.50;;;4.25;;
43801;SDS011;29429;51.074;13.764;2024-01-15T12:28:27;10.45;;;4.55;;
43801;SDS011;29429;51.074;13.764;2024-01-15T12:30:55;11.05;;;5.07;;
43801;SDS011;29429;51.074;13.764;2024-01-15T12:33:22;10.35;;;4.57;;
43801;SDS011;29429;51.074;13.764;2024-01-15T12:35:52;10.45;;;5.43;;
43801;SDS011;29429;51.074;13.764;2024-01-15T12:38:19;10.35;;;4.97;;
43801;SDS011;29429;51.074;13.764;2024-01-15T12:40:47;10.52;;;4.75;;
43801;SDS011;29429;51.074;13.764;2024-01-15T12:43:15;9.50;;;4.93;;
43801;SDS011;29429;51.074;13.764;2024-01-15T12:45:42;9.27;;;4.70;;
43801;SDS011;29429;51.074;13.764;2024-01-15T12:48:09;10.00;;;5.13;;
43801;SDS011;29429;51.074;13.764;2024-01-15T12:50:37;13.50;;;4.80;;
43801;SDS011;29429;51.074;13.764;2024-01-15T12:53:04;10.98;;;5.20;;
43801;SDS011;29429;51.074;13.764;2024-01-15T12:55:31;10.35;;;5.03;;
43801;SDS011;29429;51.074;13.764;2024-01-15T12:57:58;11.02;;;4.97;;
43801;SDS011;29429;51.074;13.764;2024-01-15T13:00:25;10.98;;;4.90;;
43801;SDS011;29429;51.074;13.764;2024-01-15T13:02:52;15.98;;;5.18;;
43801;SDS011;29429;51.074;13.764;2024-01-15T13:05:21;10.73;;;4.70;;
43801;SDS011;29429;51.074;13.764;2024-01-15T13:07:50;9.88;;;4.70;;
43801;SDS011;29429;51.074;13.764;2024-01-15T13:10:17;9.07;;;4.50;;
43801;SDS011;29429;51.074;13.764;2024-01-15T13:12:44;11.52;;;5.00;;
43801;SDS011;29429;51.074;13.764;2024-01-15T13:15:11;10.32;;;5.07;;
43801;SDS011;29429;51.074;13.764;2024-01-15T13:17:40;12.52;;;5.22;;
43801;SDS011;29429;51.074;13.764;2024-01-15T13:20:10;11.23;;;5.28;;
43801;SDS011;29429;51.074;13.764;2024-01-15T13:22:38;13.82;;;4.80;;
43801;SDS011;29429;51.074;13.764;2024-01-15T13:25:07;10.80;;;5.18;;
43801;SDS011;29429;51.074;13.764;2024-01-15T13:27:35;10.73;;;5.00;;
43801;SDS011;29429;51.074;13.764;2024-01-15T13:30:04;14.65;;;5.28;;
43801;SDS011;29429;51.074;13.764;2024-01-15T13:32:34;11.43;;;5.40;;
43801;SDS011;29429;51.074;13.764;2024-01-15T13:35:02;11.63;;;5.32;;
43801;SDS011;29429;51.074;13.764;2024-01-15T13:37:32;13.10;;;5.30;;
43801;SDS011;29429;51.074;13.764;2024-01-15T13:39:59;10.80;;;5.53;;
43801;SDS011;29429;51.074;13.764;2024-01-15T13:42:26;10.75;;;4.97;;
43801;SDS011;29429;51.074;13.764;2024-01-15T13:44:53;10.70;;;5.43;;
43801;SDS011;29429;51.074;13.764;2024-01-15T13:47:21;10.13;;;5.30;;
43801;SDS011;29429;51.074;13.764;2024-01-15T13:49:47;14.18;;;5.45;;
43801;SDS011;29429;51.074;13.764;2024-01-15T13:52:15;13.20;;;5.32;;
43801;SDS011;29429;51.074;13.764;2024-01-15T13:54:42;9.50;;;5.20;;
43801;SDS011;29429;51.074;13.764;2024-01-15T13:57:16;11.43;;;5.25;;
43801;SDS011;29429;51.074;13.764;2024-01-15T13:59:45;12.88;;;5.70;;
43801;SDS011;29429;51.074;13.764;2024-01-15T14:02:12;13.07;;;6.03;;
43801;SDS011;29429;51.074;13.764;2024-01-15T14:04:46;12.13;;;5.95;;
43801;SDS011;29429;51.074;13.764;2024-01-15T14:07:16;10.43;;;5.95;;
43801;SDS011;29429;51.074;13.764;2024-01-15T14:09:43;14.43;;;6.53;;
43801;SDS011;29429;51.074;13.764;2024-01-15T14:12:10;12.45;;;5.88;;
43801;SDS011;29429;51.074;13.764;2024-01-15T14:14:38;11.23;;;6.00;;
43801;SDS011;29429;51.074;13.764;2024-01-15T14:17:06;12.70;;;6.70;;
43801;SDS011;29429;51.074;13.764;2024-01-15T14:19:33;11.75;;;6.13;;
43801;SDS011;29429;51.074;13.764;2024-01-15T14:22:00;13.10;;;5.82;;
43801;SDS011;29429;51.074;13.764;2024-01-15T14:24:27;12.23;;;5.55;;
43801;SDS011;29429;51.074;13.764;2024-01-15T14:26:54;13.65;;;7.63;;
43801;SDS011;29429;51.074;13.764;2024-01-15T14:29:22;15.68;;;5.75;;